createdAt,value
2022-12-19T00:04:36.839Z,1.10
2022-12-19T00:10:39.256Z,1.10
2022-12-19T00:16:41.427Z,1.00
2022-12-19T00:22:43.910Z,1.00
2022-12-19T00:28:48.382Z,0.90
2022-12-19T00:34:50.467Z,0.60
2022-12-19T00:40:52.875Z,0.50
2022-12-19T00:46:57.270Z,0.40
2022-12-19T00:52:59.379Z,0.30
2022-12-19T00:59:01.679Z,0.10
2022-12-19T01:05:04.075Z,0.10
2022-12-19T01:11:07.234Z,0.00
2022-12-19T01:17:10.530Z,0.00
2022-12-19T01:23:12.558Z,0.10
2022-12-19T01:29:14.732Z,0.10
2022-12-19T01:35:21.595Z,0.10
2022-12-19T01:41:24.771Z,0.10
2022-12-19T01:47:29.384Z,0.00
2022-12-19T01:53:48.190Z,-0.10
2022-12-19T01:59:57.871Z,-0.10
2022-12-19T02:06:00.394Z,-0.20
2022-12-19T02:12:02.854Z,-0.30
2022-12-19T02:18:26.008Z,-0.30
2022-12-19T02:24:38.230Z,-0.30
2022-12-19T02:30:49.473Z,-0.40
2022-12-19T02:37:08.061Z,-0.40
2022-12-19T02:43:14.153Z,-0.60
2022-12-19T02:49:20.994Z,-0.80
2022-12-19T02:55:49.070Z,-0.90
2022-12-19T03:02:00.982Z,-1.00
2022-12-19T03:08:22.368Z,-1.00
2022-12-19T03:14:25.913Z,-1.00
2022-12-19T03:20:52.516Z,-0.80
2022-12-19T03:27:08.904Z,-0.80
2022-12-19T03:33:13.715Z,-1.10
2022-12-19T03:39:18.257Z,-1.10
2022-12-19T03:45:41.679Z,-1.30
2022-12-19T03:51:59.583Z,-1.40
2022-12-19T03:58:09.568Z,-1.50
2022-12-19T04:04:13.858Z,-1.50
2022-12-19T04:10:18.783Z,-1.50
2022-12-19T04:16:33.749Z,-1.70
2022-12-19T04:22:53.666Z,-1.70
2022-12-19T04:29:00.148Z,-1.70
2022-12-19T04:35:02.832Z,-1.80
2022-12-19T04:41:05.343Z,-1.80
2022-12-19T04:47:07.579Z,-1.70
2022-12-19T04:53:10.050Z,-1.70
2022-12-19T04:59:13.843Z,-1.80
2022-12-19T05:05:16.918Z,-1.90
2022-12-19T05:11:20.055Z,-1.90
2022-12-19T05:17:22.505Z,-1.90
2022-12-19T05:23:25.277Z,-1.70
2022-12-19T05:29:27.391Z,-1.70
2022-12-19T05:35:29.859Z,-1.80
2022-12-19T05:41:32.335Z,-1.80
2022-12-19T05:47:35.019Z,-1.60
2022-12-19T05:53:38.440Z,-1.70
2022-12-19T05:59:40.759Z,-1.70
2022-12-19T06:05:43.609Z,-1.70
2022-12-19T06:11:46.157Z,-1.60
2022-12-19T06:17:48.422Z,-1.50
2022-12-19T06:23:50.503Z,-1.50
2022-12-19T06:29:52.816Z,-1.40
2022-12-19T06:36:01.793Z,-1.50
2022-12-19T06:42:22.707Z,-1.40
2022-12-19T06:48:36.763Z,-1.30
2022-12-19T06:54:39.295Z,-1.30
2022-12-19T07:00:41.492Z,-1.10
2022-12-19T07:06:48.928Z,-1.30
2022-12-19T07:12:51.328Z,-1.40
2022-12-19T07:18:53.874Z,-1.40
2022-12-19T07:24:56.925Z,-1.40
2022-12-19T07:30:59.180Z,-1.30
2022-12-19T07:37:01.159Z,-1.20
2022-12-19T07:43:05.768Z,-1.20
2022-12-19T07:49:08.161Z,-1.20
2022-12-19T07:55:10.493Z,-1.20
2022-12-19T08:01:12.830Z,-1.20
2022-12-19T08:07:15.277Z,-1.20
2022-12-19T08:13:17.545Z,-1.10
2022-12-19T08:19:23.418Z,-1.10
2022-12-19T08:25:28.320Z,-1.00
2022-12-19T08:31:30.466Z,-0.90
2022-12-19T08:37:33.014Z,-1.00
2022-12-19T08:43:35.939Z,-0.80
2022-12-19T08:49:38.152Z,-0.90
2022-12-19T08:55:40.715Z,-0.90
2022-12-19T09:01:43.079Z,-0.50
2022-12-19T09:07:46.930Z,-0.60
2022-12-19T09:13:50.126Z,-0.60
2022-12-19T09:19:52.478Z,-0.50
2022-12-19T09:25:58.446Z,-0.70
2022-12-19T09:32:00.712Z,-0.50
2022-12-19T09:38:04.049Z,-0.40
2022-12-19T09:44:25.395Z,-0.50
2022-12-19T09:50:48.434Z,-0.30
2022-12-19T09:56:53.117Z,-0.10
2022-12-19T10:03:03.804Z,-0.30
2022-12-19T10:10:48.348Z,-0.10
2022-12-19T10:16:00.512Z,0.00
2022-12-19T10:22:18.670Z,-0.10
2022-12-19T10:29:00.281Z,0.10
2022-12-19T10:35:03.082Z,0.30
2022-12-19T10:41:15.343Z,0.10
2022-12-19T10:47:17.976Z,0.30
2022-12-19T10:53:29.196Z,0.70
2022-12-19T10:59:31.626Z,0.60
2022-12-19T11:05:58.316Z,0.60
2022-12-19T11:16:44.098Z,0.60
2022-12-19T11:29:25.219Z,0.50
2022-12-19T11:30:48.855Z,0.00
2022-12-19T11:38:04.646Z,0.10
2022-12-19T11:44:29.071Z,0.30
2022-12-19T11:51:03.907Z,0.90
2022-12-19T11:57:12.413Z,0.80
2022-12-19T12:03:36.673Z,0.70
2022-12-19T12:12:43.431Z,0.60
2022-12-19T12:30:09.155Z,0.60
2022-12-19T12:31:17.626Z,0.60
2022-12-19T12:31:57.405Z,0.50
2022-12-19T12:43:38.420Z,0.60
2022-12-19T12:49:47.789Z,0.30
2022-12-19T12:55:51.852Z,0.30
2022-12-19T13:01:57.668Z,0.40
2022-12-19T13:08:00.105Z,0.10
2022-12-19T13:14:02.597Z,-0.10
2022-12-19T13:20:05.056Z,-0.20
2022-12-19T13:26:19.944Z,-0.20
2022-12-19T13:32:23.752Z,0.00
2022-12-19T13:39:56.270Z,0.00
2022-12-19T13:44:51.746Z,-0.20
2022-12-19T13:50:55.339Z,-0.30
2022-12-19T13:56:57.800Z,-0.20
2022-12-19T14:03:02.934Z,-0.50
2022-12-19T14:11:31.040Z,-0.50
2022-12-19T14:15:52.808Z,-0.40
2022-12-19T14:22:05.620Z,-0.50
2022-12-19T14:28:30.289Z,-0.50
2022-12-19T14:35:03.936Z,-0.80
2022-12-19T14:41:08.212Z,-0.90
2022-12-19T14:52:34.482Z,-1.00
2022-12-19T14:55:09.416Z,-1.00
2022-12-19T15:01:10.242Z,-0.90
2022-12-19T15:07:07.280Z,-0.80
2022-12-19T15:14:57.439Z,-1.00
2022-12-19T15:19:50.763Z,-1.20
2022-12-19T15:26:04.644Z,-1.20
2022-12-19T15:32:14.385Z,-1.20
2022-12-19T15:38:16.587Z,-1.30
2022-12-19T15:44:18.635Z,-1.20
2022-12-19T15:50:23.640Z,-1.20
2022-12-19T15:56:32.279Z,-1.10
2022-12-19T16:03:20.472Z,-1.10
2022-12-19T16:08:57.215Z,-1.20
2022-12-19T16:15:00.858Z,-1.40
2022-12-19T16:21:03.062Z,-1.40
2022-12-19T16:27:05.377Z,-1.20
2022-12-19T16:33:24.989Z,-1.10
2022-12-19T16:39:27.193Z,-1.10
2022-12-19T16:45:29.536Z,-1.30
2022-12-19T16:51:32.499Z,-1.30
2022-12-19T16:57:35.186Z,-1.40
2022-12-19T17:03:43.130Z,-1.50
2022-12-19T17:09:45.413Z,-1.40
2022-12-19T17:15:54.288Z,-1.60
2022-12-19T17:21:58.876Z,-1.60
2022-12-19T17:28:01.197Z,-1.50
2022-12-19T17:34:03.377Z,-1.40
2022-12-19T17:40:19.920Z,-1.40
2022-12-19T17:46:24.493Z,-1.50
2022-12-19T17:52:26.706Z,-1.70
2022-12-19T17:58:30.196Z,-1.60
2022-12-19T18:04:32.409Z,-1.70
2022-12-19T18:10:34.476Z,-1.80
2022-12-19T18:16:36.891Z,-1.70
2022-12-19T18:22:39.341Z,-1.60
2022-12-19T18:28:42.444Z,-1.50
2022-12-19T18:34:45.042Z,-1.40
2022-12-19T18:40:48.960Z,-1.40
2022-12-19T18:46:52.258Z,-1.50
2022-12-19T18:52:55.399Z,-1.60
2022-12-19T18:58:58.944Z,-1.80
2022-12-19T19:05:01.341Z,-1.90
2022-12-19T19:11:03.740Z,-1.90
2022-12-19T19:17:15.986Z,-1.80
2022-12-19T19:23:18.229Z,-1.70
2022-12-19T19:29:20.553Z,-1.60
2022-12-19T19:35:22.779Z,-1.50
2022-12-19T19:41:30.099Z,-1.50
2022-12-19T19:47:33.956Z,-1.40
2022-12-19T19:53:36.366Z,-1.30
2022-12-19T19:59:38.467Z,-1.20
2022-12-19T20:05:40.559Z,-1.30
2022-12-19T20:11:42.834Z,-1.20
2022-12-19T20:17:45.128Z,-1.10
2022-12-19T20:23:47.456Z,-0.90
2022-12-19T20:29:49.764Z,-1.00
2022-12-19T20:35:56.204Z,-1.10
2022-12-19T20:41:58.340Z,-1.30
2022-12-19T20:48:00.839Z,-1.50
2022-12-19T20:54:05.004Z,-1.50
2022-12-19T21:00:09.124Z,-1.70
2022-12-19T21:06:12.966Z,-1.80
2022-12-19T21:12:15.150Z,-2.00
2022-12-19T21:18:17.482Z,-2.00
2022-12-19T21:24:20.184Z,-2.00
2022-12-19T21:30:23.089Z,-2.10
2022-12-19T21:36:26.133Z,-2.30
2022-12-19T21:42:28.316Z,-2.30
2022-12-19T21:48:34.433Z,-2.40
2022-12-19T21:54:36.506Z,-2.40
2022-12-19T22:00:38.967Z,-2.50
2022-12-19T22:06:41.171Z,-2.50
2022-12-19T22:12:43.278Z,-2.60
2022-12-19T22:18:45.903Z,-2.70
2022-12-19T22:24:48.064Z,-2.70
2022-12-19T22:30:50.063Z,-2.70
2022-12-19T22:36:52.393Z,-2.70
2022-12-19T22:42:54.440Z,-2.70
2022-12-19T22:49:00.050Z,-2.70
2022-12-19T22:55:02.171Z,-2.60
2022-12-19T23:01:05.392Z,-2.60
2022-12-19T23:07:07.738Z,-2.50
2022-12-19T23:13:09.923Z,-2.50
2022-12-19T23:19:12.595Z,-2.40
2022-12-19T23:25:15.106Z,-2.20
2022-12-19T23:31:17.393Z,-2.10
2022-12-19T23:37:19.636Z,-2.10
2022-12-19T23:43:22.076Z,-2.20
2022-12-19T23:49:24.363Z,-2.30
2022-12-19T23:55:27.230Z,-2.40
